Annan, United Kingdom
Current Conditions -  °F | °C
As of 2:50 AM on Tuesday 21 Oct 2014 (Local Time) from EGOM Reporting Station
Moderate Rain Moderate Rain  
Wind Chill: 52°   Ceiling: 1400
Heat Index: 52°   Visibility: 3mi
Dew Point: 50°   Wind: 24mph
Humidity: 94%   Direction: 210°SSW
Pressure: 29.29"   Gusts: NA
Location:  54.99°N, 3.26°W
Report Text: EGOM 210150Z AUTO 21021KT 4800 RA SCT007/// BKN014/// 11/10 Q0992
Loading
Personal Weather Stations






























Interactive Weather Map
Tropical Storm Tracking
New forecast layout! Learn more

10-Day Weather Forecast

Advertisements
Track Severe Weather on mobile